createdAt,value
2023-01-09T00:02:33.685Z,8.57
2023-01-09T00:16:14.323Z,7.93
2023-01-09T00:22:44.603Z,7.73
2023-01-09T00:29:17.930Z,9.69
2023-01-09T00:35:16.327Z,12.67
2023-01-09T00:41:42.630Z,11.24
2023-01-09T00:56:47.077Z,8.85
2023-01-09T01:02:39.580Z,8.26
2023-01-09T01:08:54.747Z,7.83
2023-01-09T01:15:19.260Z,7.47
2023-01-09T01:21:50.127Z,7.19
2023-01-09T01:28:13.116Z,7.00
2023-01-09T01:34:51.247Z,8.86
2023-01-09T01:41:40.748Z,12.34
2023-01-09T01:57:18.943Z,9.20
2023-01-09T02:04:15.600Z,8.40
2023-01-09T02:11:10.956Z,7.88
2023-01-09T02:38:11.048Z,6.74
2023-01-09T02:45:00.136Z,8.71
2023-01-09T02:52:18.410Z,11.88
2023-01-09T02:58:48.439Z,10.34
2023-01-09T03:06:09.773Z,9.06
2023-01-09T03:19:42.210Z,7.55
2023-01-09T03:26:18.682Z,7.11
2023-01-09T03:33:05.600Z,6.75
2023-01-09T03:40:02.376Z,6.48
2023-01-09T03:47:06.902Z,8.84
2023-01-09T03:53:28.849Z,11.71
2023-01-09T03:59:55.926Z,10.21
2023-01-09T04:13:52.105Z,7.95
2023-01-09T04:27:39.735Z,6.91
2023-01-09T04:48:25.677Z,8.12
2023-01-09T04:54:28.584Z,11.44
2023-01-09T05:01:19.460Z,10.03
2023-01-09T05:21:35.638Z,7.52
2023-01-09T05:35:00.378Z,6.99
2023-01-09T05:49:06.252Z,12.18
2023-01-09T06:02:53.177Z,9.34
2023-01-09T06:16:20.752Z,8.17
2023-01-09T06:23:00.136Z,7.87
2023-01-09T06:29:13.630Z,7.62
2023-01-09T06:56:17.303Z,9.77
2023-01-09T07:02:07.036Z,9.13
2023-01-09T07:16:02.315Z,8.31
2023-01-09T07:22:27.011Z,8.05
2023-01-09T07:44:15.325Z,11.39
2023-01-09T07:50:47.914Z,10.39
2023-01-09T08:04:03.440Z,9.32
2023-01-09T08:10:57.348Z,8.96
2023-01-09T08:17:03.637Z,11.06
2023-01-09T08:23:29.587Z,13.38
2023-01-09T08:29:58.839Z,11.73
2023-01-09T08:50:51.068Z,9.58
2023-01-09T08:58:15.074Z,9.29
2023-01-09T09:39:26.826Z,11.35
2023-01-09T10:10:04.567Z,9.77
2023-01-09T10:16:02.700Z,11.82
2023-01-09T10:45:21.662Z,11.46
2023-01-09T11:06:36.133Z,10.99
2023-01-09T11:13:19.727Z,10.97
2023-01-09T11:27:26.734Z,10.94
2023-01-09T11:39:55.404Z,10.98
2023-01-09T11:47:19.080Z,13.46
2023-01-09T11:54:20.603Z,14.76
2023-01-09T12:15:26.994Z,12.43
2023-01-09T12:34:40.726Z,11.84
2023-01-09T12:37:08.868Z,11.65
2023-01-09T12:43:27.509Z,11.54
2023-01-09T12:52:21.749Z,11.45
2023-01-09T13:33:04.142Z,12.22
2023-01-09T13:39:32.450Z,11.90
2023-01-09T13:45:16.356Z,11.65
2023-01-09T13:50:41.619Z,12.85
2023-01-09T13:57:02.213Z,15.78
2023-01-09T14:04:09.625Z,15.20
2023-01-09T14:10:35.688Z,13.82
2023-01-09T14:16:31.279Z,13.19
2023-01-09T14:22:55.995Z,12.68
2023-01-09T14:29:07.546Z,12.22
2023-01-09T14:54:49.781Z,15.88
2023-01-09T15:01:34.683Z,14.31
2023-01-09T15:07:40.570Z,13.26
2023-01-09T15:14:06.195Z,12.67
2023-01-09T15:20:08.829Z,12.20
2023-01-09T15:25:41.747Z,11.92
2023-01-09T15:32:02.408Z,11.78
2023-01-09T15:38:37.106Z,11.68
2023-01-09T15:44:06.106Z,11.64
2023-01-09T15:49:35.208Z,12.95
2023-01-09T15:55:35.256Z,15.98
2023-01-09T16:01:14.112Z,14.98
2023-01-09T16:07:42.819Z,13.83
2023-01-09T16:12:56.773Z,13.09
2023-01-09T16:20:14.861Z,12.65
2023-01-09T16:25:51.337Z,12.25
2023-01-09T16:31:59.729Z,13.58
2023-01-09T16:37:39.183Z,16.67
2023-01-09T16:43:58.320Z,15.78
2023-01-09T16:50:26.005Z,14.30
2023-01-09T16:56:13.819Z,13.43
2023-01-09T17:02:28.729Z,12.85
2023-01-09T17:08:54.399Z,12.42
2023-01-09T17:14:37.471Z,12.15
2023-01-09T17:19:47.127Z,13.27
2023-01-09T17:26:10.529Z,16.04
2023-01-09T17:31:44.243Z,15.87
2023-01-09T17:37:50.388Z,14.62
2023-01-09T17:44:28.082Z,13.68
2023-01-09T17:51:00.824Z,13.08
2023-01-09T17:57:07.819Z,12.63
2023-01-09T18:02:53.362Z,12.33
2023-01-09T18:08:18.465Z,12.07
2023-01-09T18:13:46.074Z,11.89
2023-01-09T18:19:08.703Z,13.09
2023-01-09T18:25:17.790Z,15.91
2023-01-09T18:30:48.145Z,15.40
2023-01-09T18:42:41.410Z,13.56
2023-01-09T18:49:27.132Z,13.03
2023-01-09T18:55:10.359Z,12.60
2023-01-09T19:01:18.613Z,12.32
2023-01-09T19:07:49.509Z,12.06
2023-01-09T19:13:57.194Z,11.85
2023-01-09T19:20:02.866Z,13.25
2023-01-09T19:26:12.524Z,16.38
2023-01-09T19:32:34.901Z,15.16
2023-01-09T19:38:45.271Z,13.99
2023-01-09T19:45:02.079Z,13.31
2023-01-09T19:50:23.199Z,12.86
2023-01-09T19:56:55.197Z,12.51
2023-01-09T20:03:25.919Z,12.18
2023-01-09T20:10:02.170Z,11.96
2023-01-09T20:15:44.878Z,11.76
2023-01-09T20:22:03.654Z,13.30
2023-01-09T20:35:22.953Z,14.70
2023-01-09T20:41:30.285Z,13.71
2023-01-09T20:47:50.051Z,13.10
2023-01-09T20:53:33.161Z,12.58
2023-01-09T21:06:35.609Z,11.89
2023-01-09T21:12:46.539Z,11.62
2023-01-09T21:18:39.662Z,11.44
2023-01-09T21:24:26.642Z,12.66
2023-01-09T21:30:18.710Z,15.84
2023-01-09T21:36:54.771Z,14.95
2023-01-09T21:43:32.653Z,13.57
2023-01-09T21:50:02.722Z,12.85
2023-01-09T21:56:28.782Z,12.28
2023-01-09T22:10:02.656Z,11.43
2023-01-09T22:16:35.234Z,13.11
2023-01-09T22:22:20.158Z,15.77
2023-01-09T22:29:24.285Z,14.45
2023-01-09T22:36:08.793Z,13.26
2023-01-09T22:42:25.315Z,12.60
2023-01-09T22:56:04.729Z,11.56
2023-01-09T23:03:02.616Z,11.16
2023-01-09T23:09:45.914Z,13.12
2023-01-09T23:30:38.121Z,12.94
2023-01-09T23:44:12.309Z,11.59
2023-01-09T23:58:00.033Z,13.11
